Raleigh, North Dakota
Current Conditions -  °F | °C
As of 7:15 AM on Monday 24 Nov 2014 (Local Time) from KY19 Reporting Station
Clear Clear  
Wind Chill: -6°   Ceiling: Unl
Heat Index:   Visibility: 10mi
Dew Point:   Wind: 12mph
Humidity: 92%   Direction: 330°NNW
Pressure: 29.84"   Gusts: NA
Location:  46.36°N, 101.31°W
Report Text: KY19 241415Z AUTO 33010KT 10SM CLR M13/M14 A2984 RMK AO2
Loading
Personal Weather Stations






























Interactive Weather Map New forecast layout! Learn more

10-Day Weather Forecast

Advertisements
Track Severe Weather on mobile